Terminal Aerodrome Forecast
Issued by NWS Charleston, WV

Current Version | Previous Version | Graphics & Text | Print | Product List | Glossary On
Versions: 1 2 3 4 5 6 7 8 9 10 11 12 13 14 15 16 17 18 19 20 21 22 23 24 25 26 27 28 29
000
FTUS41 KRLX 300500
TAFBKW
TAF
KBKW 300538Z 3006/3106 30010G23KT 3SM -SN BR OVC008
     FM300900 31009G21KT 2SM -SN BR OVC010
     FM301500 30008G15KT 3SM -SN BR BKN015
     FM301700 31010G20KT 5SM -SN BR BKN025
     FM302200 31010G20KT P6SM BKN025=

USA.gov is the U.S. government's official web portal to all federal, state and local government web resources and services.